createdAt,value
2019-05-23T00:00:19.937Z,19.9
2019-05-23T00:01:32.212Z,18.2
2019-05-23T00:02:44.432Z,19.4
2019-05-23T00:03:56.587Z,19.6
2019-05-23T00:05:08.805Z,22.2
2019-05-23T00:06:20.965Z,20.1
2019-05-23T00:07:33.201Z,18
2019-05-23T00:08:45.301Z,21.8
2019-05-23T00:09:57.499Z,22
2019-05-23T00:11:09.890Z,21
2019-05-23T00:12:22.736Z,20.6
2019-05-23T00:13:34.174Z,20.1
2019-05-23T00:14:46.356Z,22
2019-05-23T00:15:58.574Z,19.3
2019-05-23T00:17:10.759Z,20.9
2019-05-23T00:18:22.928Z,20.6
2019-05-23T00:19:35.134Z,19.1
2019-05-23T00:20:47.317Z,21.5
2019-05-23T00:21:59.524Z,23.3
2019-05-23T00:23:11.708Z,22.6
2019-05-23T00:24:23.964Z,24.9
2019-05-23T00:25:36.155Z,22.9
2019-05-23T00:26:48.303Z,22.6
2019-05-23T00:28:00.467Z,22.9
2019-05-23T00:29:12.696Z,25.3
2019-05-23T00:30:24.787Z,22.7
2019-05-23T00:31:37.097Z,25.1
2019-05-23T00:32:49.177Z,24.2
2019-05-23T00:34:01.454Z,23.5
2019-05-23T00:35:13.670Z,21.3
2019-05-23T00:36:25.909Z,22.6
2019-05-23T00:37:38.018Z,21.1
2019-05-23T00:38:50.298Z,23.3
2019-05-23T00:40:02.467Z,21.3
2019-05-23T00:41:14.596Z,25.7
2019-05-23T00:42:26.721Z,25.5
2019-05-23T00:43:38.911Z,23.4
2019-05-23T00:44:51.197Z,22.9
2019-05-23T00:46:03.421Z,23.9
2019-05-23T00:47:15.585Z,21.7
2019-05-23T00:48:27.784Z,24.3
2019-05-23T00:49:39.969Z,22.2
2019-05-23T00:50:52.099Z,20.4
2019-05-23T00:52:04.352Z,21.4
2019-05-23T00:53:16.556Z,23.5
2019-05-23T00:54:28.651Z,20.8
2019-05-23T00:55:40.947Z,21.6
2019-05-23T00:56:53.045Z,22.6
2019-05-23T00:58:05.231Z,20.7
2019-05-23T00:59:17.632Z,25.4
2019-05-23T01:00:29.701Z,21.2
2019-05-23T01:01:41.879Z,23.4
2019-05-23T01:02:54.117Z,20.5
2019-05-23T01:04:06.296Z,23.1
2019-05-23T01:05:18.497Z,22.4
2019-05-23T01:06:30.586Z,21.3
2019-05-23T01:07:42.958Z,24
2019-05-23T01:08:54.977Z,21.4
2019-05-23T01:10:07.300Z,21.2
2019-05-23T01:11:19.470Z,21.4
2019-05-23T01:12:31.580Z,23.3
2019-05-23T01:13:43.854Z,19.4
2019-05-23T01:14:56.144Z,23.5
2019-05-23T01:16:08.238Z,25
2019-05-23T01:17:20.455Z,24
2019-05-23T01:18:32.527Z,25.4
2019-05-23T01:19:44.719Z,22.8
2019-05-23T01:20:56.907Z,24.4
2019-05-23T01:22:09.292Z,23.6
2019-05-23T01:23:21.479Z,23.3
2019-05-23T01:24:33.604Z,22.3
2019-05-23T01:25:45.860Z,25.2
2019-05-23T01:26:57.988Z,25.7
2019-05-23T01:28:10.172Z,23.8
2019-05-23T01:29:22.372Z,23.8
2019-05-23T01:30:34.475Z,27.4
2019-05-23T01:31:46.780Z,27.1
2019-05-23T01:32:58.861Z,25.2
2019-05-23T01:34:11.041Z,27.5
2019-05-23T01:35:23.353Z,26.7
2019-05-23T01:36:35.433Z,24.5
2019-05-23T01:37:47.695Z,30.4
2019-05-23T01:38:59.976Z,26.5
2019-05-23T01:40:12.122Z,26.6
2019-05-23T01:41:24.210Z,29.1
2019-05-23T01:42:36.417Z,27.9
2019-05-23T01:43:48.695Z,26.5
2019-05-23T01:45:00.887Z,24.6
2019-05-23T01:46:13.075Z,25.6
2019-05-23T01:47:25.269Z,26
2019-05-23T01:48:37.375Z,26.4
2019-05-23T01:49:49.656Z,29
2019-05-23T01:51:05.564Z,24.7
2019-05-23T01:52:14.160Z,26.6
2019-05-23T01:53:26.252Z,24.9
2019-05-23T01:54:38.343Z,28.1
2019-05-23T01:55:50.676Z,26.2
2019-05-23T01:57:02.735Z,26.1
2019-05-23T01:58:15.007Z,26.7
2019-05-23T01:59:27.202Z,27.3
2019-05-23T02:00:39.418Z,27.8
2019-05-23T02:01:51.604Z,26.4
2019-05-23T02:03:03.711Z,26
2019-05-23T02:04:15.980Z,28.2
2019-05-23T02:05:28.177Z,30.9
2019-05-23T02:06:40.290Z,27.6
2019-05-23T02:07:52.615Z,28.6
2019-05-23T02:09:04.674Z,30.5
2019-05-23T02:10:16.856Z,27.7
2019-05-23T02:11:29.145Z,29.2
2019-05-23T02:12:41.331Z,27.8
2019-05-23T02:13:53.433Z,28.9
2019-05-23T02:15:05.733Z,31.7
2019-05-23T02:16:17.914Z,30.9
2019-05-23T02:17:30.017Z,28.9
2019-05-23T02:18:42.215Z,28.4
2019-05-23T02:19:54.515Z,27.5
2019-05-23T02:21:06.645Z,27.1
2019-05-23T02:22:18.881Z,30
2019-05-23T02:23:31.096Z,28.4
2019-05-23T02:24:43.202Z,30
2019-05-23T02:25:55.448Z,29.7
2019-05-23T02:27:07.664Z,31.7
2019-05-23T02:28:19.854Z,30
2019-05-23T02:29:32.061Z,28.4
2019-05-23T02:30:44.179Z,27.5
2019-05-23T02:31:56.530Z,29.6
2019-05-23T02:33:08.540Z,28
2019-05-23T02:34:20.840Z,26.5
2019-05-23T02:35:33.056Z,30.1
2019-05-23T02:36:51.191Z,30.4
2019-05-23T02:37:57.425Z,27.2
2019-05-23T02:39:09.524Z,30.3
2019-05-23T02:40:21.784Z,28
2019-05-23T02:41:34.000Z,28.4
2019-05-23T02:42:46.126Z,28.7
2019-05-23T02:43:58.394Z,28
2019-05-23T02:45:10.592Z,28.3
2019-05-23T02:46:22.800Z,31.1
2019-05-23T02:47:34.979Z,29.7
2019-05-23T02:48:47.072Z,27.3
2019-05-23T02:49:59.329Z,35.2
2019-05-23T02:51:11.638Z,31.3
2019-05-23T02:52:23.723Z,33.9
2019-05-23T02:53:35.845Z,30.7
2019-05-23T02:54:48.173Z,30.8
2019-05-23T02:56:00.377Z,29.2
2019-05-23T02:57:12.426Z,33.1
2019-05-23T02:58:24.699Z,29.5
2019-05-23T02:59:37.214Z,29.8
2019-05-23T03:00:49.101Z,30.6
2019-05-23T03:02:01.333Z,32.4
2019-05-23T03:03:13.471Z,30.5
2019-05-23T03:04:25.640Z,30
2019-05-23T03:05:37.871Z,30.9
2019-05-23T03:06:49.968Z,35.1
2019-05-23T03:08:02.244Z,32.9
2019-05-23T03:09:14.355Z,28.8
2019-05-23T03:10:26.732Z,30.7
2019-05-23T03:12:51.097Z,27.4
2019-05-23T03:14:03.240Z,30
2019-05-23T03:15:15.330Z,28.6
2019-05-23T03:16:28.967Z,32.9
2019-05-23T03:17:39.894Z,29.9
2019-05-23T03:18:51.928Z,33.3
2019-05-23T03:20:04.207Z,29.5
2019-05-23T03:21:16.327Z,31.2
2019-05-23T03:22:28.492Z,31.5
2019-05-23T03:23:40.892Z,31.4
2019-05-23T03:24:53.019Z,32.2
2019-05-23T03:26:05.173Z,26.8
2019-05-23T03:27:20.375Z,28.8
2019-05-23T03:28:29.543Z,31.4
2019-05-23T03:29:41.727Z,28.2
2019-05-23T03:30:53.875Z,28.5
2019-05-23T03:32:06.191Z,28.5
2019-05-23T03:33:18.342Z,29.7
2019-05-23T03:34:35.188Z,27.8
2019-05-23T03:35:42.753Z,29.4
2019-05-23T03:36:54.832Z,27.9
2019-05-23T03:38:07.098Z,28.4
2019-05-23T03:39:20.814Z,26.8
2019-05-23T03:40:31.485Z,31.4
2019-05-23T03:41:43.686Z,28.1
2019-05-23T03:42:55.829Z,25.8
2019-05-23T03:44:08.095Z,27.6
2019-05-23T03:45:20.867Z,26.9
2019-05-23T03:46:32.502Z,26.2
2019-05-23T03:47:44.687Z,28
2019-05-23T03:48:56.872Z,26.1
2019-05-23T03:50:09.086Z,29.5
2019-05-23T03:51:21.307Z,31.9
2019-05-23T03:52:33.543Z,24.9
2019-05-23T03:53:45.794Z,29.6
2019-05-23T03:54:57.784Z,27.6
2019-05-23T03:56:10.044Z,29.3
2019-05-23T03:57:22.198Z,26.6
2019-05-23T03:58:34.579Z,26.1
2019-05-23T03:59:46.646Z,26.8
2019-05-23T04:00:58.836Z,27
2019-05-23T04:02:11.054Z,25.9
2019-05-23T04:03:23.214Z,27.7
2019-05-23T04:04:35.900Z,24.5
2019-05-23T04:05:47.639Z,25.1
2019-05-23T04:06:59.827Z,27.7
2019-05-23T04:08:11.966Z,24.9
2019-05-23T04:09:24.209Z,24.3
2019-05-23T04:10:36.423Z,25.4
2019-05-23T04:11:48.679Z,26.1
2019-05-23T04:13:00.690Z,24.7
2019-05-23T04:14:12.897Z,21.2
2019-05-23T04:15:25.253Z,25.2
2019-05-23T04:16:37.384Z,25
2019-05-23T04:17:49.662Z,27
2019-05-23T04:19:01.686Z,24.4
2019-05-23T04:20:14.022Z,25.3
2019-05-23T04:21:26.057Z,24.5
2019-05-23T04:22:38.344Z,27
2019-05-23T04:23:50.626Z,26.9
2019-05-23T04:25:03.433Z,22.6
2019-05-23T04:26:14.837Z,23.1
2019-05-23T04:27:27.022Z,23.7
2019-05-23T04:28:39.231Z,23.4
2019-05-23T04:29:51.422Z,22.5
2019-05-23T04:31:03.712Z,23.1
2019-05-23T04:32:15.908Z,20.8
2019-05-23T04:33:28.086Z,22.1
2019-05-23T04:34:40.297Z,23
2019-05-23T04:35:52.547Z,22
2019-05-23T04:37:04.594Z,23.8
2019-05-23T04:38:16.786Z,21.5
2019-05-23T04:39:29.077Z,21.9
2019-05-23T04:40:41.297Z,20.1
2019-05-23T04:41:53.461Z,19.8
2019-05-23T04:43:05.596Z,22.5
2019-05-23T04:44:20.803Z,22.4
2019-05-23T04:45:29.951Z,21.9
2019-05-23T04:46:42.244Z,21.1
2019-05-23T04:47:54.518Z,22.3
2019-05-23T04:49:06.700Z,18.6
2019-05-23T04:50:18.742Z,21.3
2019-05-23T04:51:31.036Z,21.8
2019-05-23T04:52:43.157Z,20.3
2019-05-23T04:53:55.432Z,23.9
2019-05-23T04:55:07.656Z,22
2019-05-23T04:56:20.784Z,22.3
2019-05-23T04:57:31.921Z,18.8
2019-05-23T04:58:44.175Z,24.6
2019-05-23T04:59:56.490Z,24.5
2019-05-23T05:01:08.589Z,22.3
2019-05-23T05:02:20.729Z,20.5
2019-05-23T05:03:33.075Z,20.7
2019-05-23T05:04:45.204Z,21.7
2019-05-23T05:05:57.390Z,21.6
2019-05-23T05:07:09.585Z,22
2019-05-23T05:08:21.766Z,22.2
2019-05-23T05:09:33.883Z,21.8
2019-05-23T05:10:46.056Z,18.7
2019-05-23T05:11:58.386Z,18.8
2019-05-23T05:13:10.547Z,21.7
2019-05-23T05:14:22.725Z,19.1
2019-05-23T05:15:34.837Z,22.6
2019-05-23T05:16:47.030Z,20.1
2019-05-23T05:18:04.996Z,21.5
2019-05-23T05:19:11.423Z,20.1
2019-05-23T05:20:23.721Z,19.3
2019-05-23T05:21:35.820Z,21.5
2019-05-23T05:22:48.083Z,22
2019-05-23T05:24:06.029Z,20.2
2019-05-23T05:25:12.492Z,19.6
2019-05-23T05:26:24.677Z,20.5
2019-05-23T05:27:36.879Z,21.3
2019-05-23T05:28:48.999Z,21
2019-05-23T05:30:01.244Z,20.7
2019-05-23T05:31:13.395Z,19.7
2019-05-23T05:32:25.628Z,19.2
2019-05-23T05:33:37.806Z,17.4
2019-05-23T05:34:50.136Z,18.3
2019-05-23T05:36:02.250Z,20.9
2019-05-23T05:37:14.477Z,19.8
2019-05-23T05:38:26.551Z,19.9
2019-05-23T05:39:38.849Z,19.9
2019-05-23T05:40:51.098Z,20.4
2019-05-23T05:42:03.198Z,17.8
2019-05-23T05:43:20.421Z,19.1
2019-05-23T05:44:27.596Z,20.9
2019-05-23T05:45:39.725Z,20.4
2019-05-23T05:46:52.025Z,20.9
2019-05-23T05:48:10.410Z,20.3
2019-05-23T05:49:16.380Z,20.6
2019-05-23T05:50:28.642Z,20.2
2019-05-23T05:51:41.634Z,19.7
2019-05-23T05:52:52.901Z,16.8
2019-05-23T05:54:05.193Z,18.9
2019-05-23T05:55:17.413Z,19.6
2019-05-23T05:56:29.680Z,19.3
2019-05-23T05:57:41.682Z,18.3
2019-05-23T05:58:53.949Z,19.5
2019-05-23T06:00:06.275Z,18.5
2019-05-23T06:01:18.411Z,17.9
2019-05-23T06:02:30.554Z,20
2019-05-23T06:03:42.817Z,21.2
2019-05-23T06:04:54.845Z,19.1
2019-05-23T06:06:07.161Z,17.2
2019-05-23T06:07:19.265Z,18.6
2019-05-23T06:08:31.463Z,22.4
2019-05-23T06:09:43.716Z,16.5
2019-05-23T06:10:55.882Z,18.5
2019-05-23T06:12:08.124Z,18.4
2019-05-23T06:13:20.283Z,19.1
2019-05-23T06:14:32.411Z,17.5
2019-05-23T06:15:44.718Z,17.2
2019-05-23T06:16:56.893Z,20.1
2019-05-23T06:18:09.054Z,16.6
2019-05-23T06:19:21.223Z,17.8
2019-05-23T06:20:33.497Z,19.9
2019-05-23T06:21:45.628Z,17.3
2019-05-23T06:22:57.805Z,18
2019-05-23T06:24:10.079Z,18.5
2019-05-23T06:25:22.328Z,15.9
2019-05-23T06:26:34.453Z,17.8
2019-05-23T06:27:46.643Z,16.5
2019-05-23T06:28:58.754Z,16.4
2019-05-23T06:30:11.045Z,15.8
2019-05-23T06:31:23.152Z,15.6
2019-05-23T06:32:35.471Z,16.2
2019-05-23T06:33:47.545Z,15.5
2019-05-23T06:34:59.726Z,18.1
2019-05-23T06:36:12.081Z,16.2
2019-05-23T06:37:24.210Z,16
2019-05-23T06:38:36.405Z,14.7
2019-05-23T06:39:48.705Z,13.8
2019-05-23T06:41:00.711Z,16.2
2019-05-23T06:42:13.003Z,13.9
2019-05-23T06:43:25.094Z,17.2
2019-05-23T06:44:37.522Z,17.6
2019-05-23T06:45:49.485Z,17.8
2019-05-23T06:47:01.883Z,14.5
2019-05-23T06:48:13.978Z,14.7
2019-05-23T06:49:26.133Z,17.8
2019-05-23T06:50:38.312Z,14
2019-05-23T06:51:50.717Z,14.3
2019-05-23T06:53:02.761Z,14.4
2019-05-23T06:54:14.910Z,18.1
2019-05-23T06:55:30.915Z,13.4
2019-05-23T06:56:39.329Z,14
2019-05-23T06:57:51.420Z,16.3
2019-05-23T06:59:03.733Z,26.8
2019-05-23T07:00:15.929Z,13.9
2019-05-23T07:01:28.074Z,20.3
2019-05-23T07:02:40.299Z,14.4
2019-05-23T07:03:52.497Z,16.8
2019-05-23T07:05:04.768Z,11.9
2019-05-23T07:06:20.278Z,12.8
2019-05-23T07:07:34.126Z,13.9
2019-05-23T07:08:41.417Z,13.6
2019-05-23T07:09:53.445Z,13.9
2019-05-23T07:11:05.722Z,16.3
2019-05-23T07:12:17.892Z,15.1
2019-05-23T07:13:30.056Z,15.4
2019-05-23T07:14:42.251Z,13.3
2019-05-23T07:15:54.476Z,15.4
2019-05-23T07:17:06.695Z,13.5
2019-05-23T07:18:18.854Z,12.7
2019-05-23T07:19:30.935Z,14.9
2019-05-23T07:20:43.376Z,12
2019-05-23T07:21:55.340Z,13.7
2019-05-23T07:23:07.614Z,12.9
2019-05-23T07:24:19.906Z,11.8
2019-05-23T07:25:32.048Z,12.3
2019-05-23T07:26:44.244Z,13.9
2019-05-23T07:27:56.423Z,11.8
2019-05-23T07:29:08.527Z,15
2019-05-23T07:30:20.915Z,12.4
2019-05-23T07:31:33.045Z,13.4
2019-05-23T07:32:45.178Z,12.1
2019-05-23T07:33:57.297Z,17
2019-05-23T07:35:09.592Z,11.5
2019-05-23T07:36:21.778Z,12.7
2019-05-23T07:37:33.971Z,12.9
2019-05-23T07:38:46.147Z,11.8
2019-05-23T07:39:58.355Z,13.3
2019-05-23T07:41:10.604Z,15.8
2019-05-23T07:42:22.759Z,13.1
2019-05-23T07:43:34.888Z,14.1
2019-05-23T07:44:47.163Z,12.6
2019-05-23T07:46:00.172Z,12.7
2019-05-23T07:47:11.506Z,15.6
2019-05-23T07:48:23.754Z,12.9
2019-05-23T07:49:36.074Z,11.4
2019-05-23T07:50:48.115Z,14.3
2019-05-23T07:52:02.155Z,12.6
2019-05-23T07:53:15.399Z,12.8
2019-05-23T07:54:24.708Z,13.9
2019-05-23T07:55:36.793Z,14.1
2019-05-23T07:56:49.171Z,17.9
2019-05-23T07:58:05.668Z,14.7
2019-05-23T07:59:13.461Z,13
2019-05-23T08:00:25.681Z,13.2
2019-05-23T08:01:37.879Z,14.2
2019-05-23T08:02:50.071Z,15.8
2019-05-23T08:04:02.296Z,12.9
2019-05-23T08:05:14.561Z,14.3
2019-05-23T08:06:26.650Z,14.5
2019-05-23T08:07:38.766Z,12.2
2019-05-23T08:08:51.128Z,11.9
2019-05-23T08:10:03.312Z,13.3
2019-05-23T08:11:20.235Z,13.8
2019-05-23T08:12:27.631Z,11
2019-05-23T08:13:39.907Z,14.2
2019-05-23T08:14:52.140Z,12.7
2019-05-23T08:16:04.213Z,12.7
2019-05-23T08:17:16.462Z,13.8
2019-05-23T08:18:28.609Z,12.9
2019-05-23T08:19:40.744Z,13.5
2019-05-23T08:20:52.969Z,16.6
2019-05-23T08:22:05.217Z,12.2
2019-05-23T08:23:17.406Z,13.6
2019-05-23T08:24:29.603Z,14.6
2019-05-23T08:25:41.783Z,13.4
2019-05-23T08:26:53.982Z,14.7
2019-05-23T08:28:06.229Z,17
2019-05-23T08:29:18.389Z,13.7
2019-05-23T08:30:30.569Z,13
2019-05-23T08:31:42.675Z,14.7
2019-05-23T08:32:55.033Z,13.3
2019-05-23T08:34:07.197Z,12.3
2019-05-23T08:35:19.348Z,11.2
2019-05-23T08:36:31.559Z,13
2019-05-23T08:37:44.772Z,12.8
2019-05-23T08:38:55.916Z,11.6
2019-05-23T08:40:08.131Z,11.7
2019-05-23T08:41:20.516Z,12.3
2019-05-23T08:42:34.297Z,13.6
2019-05-23T08:43:44.648Z,12.8
2019-05-23T08:44:56.936Z,14.5
2019-05-23T08:46:09.023Z,13.7
2019-05-23T08:47:21.302Z,13.9
2019-05-23T08:48:33.585Z,13.3
2019-05-23T08:49:45.785Z,13.5
2019-05-23T08:50:57.928Z,13.5
2019-05-23T08:52:10.096Z,13.5
2019-05-23T08:53:22.446Z,14.3
2019-05-23T08:54:34.540Z,14.4
2019-05-23T08:55:46.692Z,12.8
2019-05-23T08:56:58.873Z,15.2
2019-05-23T08:58:11.012Z,12.6
2019-05-23T08:59:23.359Z,16.4
2019-05-23T09:00:35.482Z,13.5
2019-05-23T09:01:47.659Z,11.3
2019-05-23T09:02:59.813Z,14.1
2019-05-23T09:04:12.091Z,14.6
2019-05-23T09:05:24.221Z,14.3
2019-05-23T09:06:36.447Z,14
2019-05-23T09:07:48.593Z,14.9
2019-05-23T09:09:00.885Z,13.5
2019-05-23T09:10:12.937Z,15.2
2019-05-23T09:11:25.220Z,13.5
2019-05-23T09:12:37.537Z,13.6
2019-05-23T09:13:49.628Z,13.8
2019-05-23T09:15:01.873Z,14.6
2019-05-23T09:16:14.010Z,13.1
2019-05-23T09:17:26.259Z,11.7
2019-05-23T09:18:38.432Z,16.2
2019-05-23T09:19:50.525Z,12
2019-05-23T09:21:02.798Z,12
2019-05-23T09:22:14.993Z,13.7
2019-05-23T09:23:27.263Z,13.8
2019-05-23T09:24:39.390Z,13.9
2019-05-23T09:25:51.623Z,12.2
2019-05-23T09:27:03.760Z,12.6
2019-05-23T09:28:16.016Z,12.8
2019-05-23T09:29:28.181Z,12.6
2019-05-23T09:30:40.410Z,12.7
2019-05-23T09:31:52.533Z,13.9
2019-05-23T09:33:04.856Z,13.1
2019-05-23T09:34:16.855Z,13.2
2019-05-23T09:35:29.153Z,16.1
2019-05-23T09:36:41.355Z,12.9
2019-05-23T09:37:53.560Z,15.4
2019-05-23T09:39:05.644Z,12.3
2019-05-23T09:40:17.977Z,13.4
2019-05-23T09:41:30.132Z,15
2019-05-23T09:42:42.334Z,15.5
2019-05-23T09:43:54.430Z,15
2019-05-23T09:45:06.778Z,14.5
2019-05-23T09:46:18.840Z,13.7
2019-05-23T09:47:31.116Z,15.3
2019-05-23T09:48:43.318Z,11.5
2019-05-23T09:49:55.490Z,12.1
2019-05-23T09:51:07.675Z,14.6
2019-05-23T09:52:20.229Z,13.9
2019-05-23T09:53:32.066Z,14.1
2019-05-23T09:54:44.373Z,12.1
2019-05-23T09:55:56.387Z,12.1
2019-05-23T09:57:08.691Z,12.8
2019-05-23T09:58:20.802Z,12.5
2019-05-23T09:59:33.046Z,11.5
2019-05-23T10:00:45.291Z,12.5
2019-05-23T10:01:57.778Z,13.5
2019-05-23T10:03:09.703Z,14.1
2019-05-23T10:04:21.853Z,13.5
2019-05-23T10:05:34.070Z,14.2
2019-05-23T10:06:46.253Z,11.8
2019-05-23T10:07:58.352Z,11.8
2019-05-23T10:09:10.541Z,13.7
2019-05-23T10:10:22.817Z,14
2019-05-23T10:11:34.981Z,13.3
2019-05-23T10:12:47.307Z,18.3
2019-05-23T10:13:59.419Z,13.7
2019-05-23T10:15:11.524Z,14.7
2019-05-23T10:16:23.819Z,14.3
2019-05-23T10:17:36.133Z,12.5
2019-05-23T10:18:48.193Z,13.4
2019-05-23T10:20:00.322Z,12.8
2019-05-23T10:21:12.652Z,11.9
2019-05-23T10:22:24.747Z,10.3
2019-05-23T10:23:37.002Z,12.3
2019-05-23T10:24:49.179Z,12.8
2019-05-23T10:26:01.455Z,11.6
2019-05-23T10:27:13.573Z,10.7
2019-05-23T10:28:25.794Z,12.8
2019-05-23T10:29:38.009Z,12.1
2019-05-23T10:30:50.171Z,12.9
2019-05-23T10:32:02.261Z,12.4
2019-05-23T10:33:14.579Z,12.3
2019-05-23T10:34:26.705Z,10.9
2019-05-23T10:35:38.953Z,12.2
2019-05-23T10:36:51.228Z,11.2
2019-05-23T10:38:03.372Z,13.5
2019-05-23T10:39:15.514Z,10.7
2019-05-23T10:40:27.696Z,12.5
2019-05-23T10:41:39.930Z,10.9
2019-05-23T10:42:52.220Z,10.2
2019-05-23T10:44:04.292Z,10
2019-05-23T10:45:16.521Z,11.6
2019-05-23T10:46:28.641Z,9.3
2019-05-23T10:47:40.911Z,9.5
2019-05-23T10:48:53.216Z,10.1
2019-05-23T10:50:05.333Z,11
2019-05-23T10:51:17.538Z,10.2
2019-05-23T10:52:29.676Z,9.2
2019-05-23T10:53:42.832Z,10
2019-05-23T10:54:58.615Z,10.1
2019-05-23T10:56:06.267Z,11
2019-05-23T10:57:18.515Z,13.3
2019-05-23T10:58:30.566Z,11
2019-05-23T10:59:42.966Z,11.3
2019-05-23T11:00:55.143Z,11
2019-05-23T11:02:07.398Z,10.1
2019-05-23T11:03:19.419Z,12
2019-05-23T11:04:31.675Z,11.2
2019-05-23T11:05:43.816Z,10.9
2019-05-23T11:06:56.039Z,11.8
2019-05-23T11:08:08.137Z,10
2019-05-23T11:09:20.475Z,7.8
2019-05-23T11:10:32.555Z,6.7
2019-05-23T11:11:44.846Z,6.2
2019-05-23T11:12:57.065Z,9.1
2019-05-23T11:14:09.206Z,8.3
2019-05-23T11:15:21.382Z,11.8
2019-05-23T11:16:33.600Z,7.6
2019-05-23T11:17:45.753Z,9.7
2019-05-23T11:18:58.182Z,8.4
2019-05-23T11:20:10.187Z,7.6
2019-05-23T11:21:22.405Z,6.6
2019-05-23T11:22:34.510Z,8
2019-05-23T11:23:46.790Z,6.6
2019-05-23T11:25:01.898Z,6.5
2019-05-23T11:26:11.093Z,6.6
2019-05-23T11:27:23.395Z,6.7
2019-05-23T11:28:35.646Z,5.5
2019-05-23T11:29:47.750Z,6.1
2019-05-23T11:30:59.934Z,5.6
2019-05-23T11:32:12.114Z,5.9
2019-05-23T11:33:24.348Z,7.2
2019-05-23T11:34:36.507Z,6.1
2019-05-23T11:35:49.091Z,7.5
2019-05-23T11:37:00.940Z,7.8
2019-05-23T11:38:13.190Z,6
2019-05-23T11:39:25.358Z,5.1
2019-05-23T11:40:37.512Z,7.4
2019-05-23T11:41:49.732Z,4.9
2019-05-23T11:43:01.977Z,6
2019-05-23T11:44:14.011Z,7
2019-05-23T11:45:26.296Z,6
2019-05-23T11:46:38.667Z,6.4
2019-05-23T11:47:50.847Z,5.6
2019-05-23T11:49:02.885Z,7.5
2019-05-23T11:50:15.159Z,6.7
2019-05-23T11:51:27.296Z,6.2
2019-05-23T11:52:39.476Z,4.8
2019-05-23T11:53:51.677Z,4
2019-05-23T11:55:04.015Z,6.3
2019-05-23T11:56:16.038Z,7.1
2019-05-23T11:57:28.261Z,5.1
2019-05-23T11:58:40.391Z,5.9
2019-05-23T11:59:52.659Z,6.1
2019-05-23T12:01:04.917Z,5.3
2019-05-23T12:02:17.331Z,5.4
2019-05-23T12:03:29.197Z,5.7
2019-05-23T12:04:41.375Z,5.8
2019-05-23T12:05:53.604Z,6.5
2019-05-23T12:07:05.816Z,4.3
2019-05-23T12:08:17.922Z,6.8
2019-05-23T12:09:30.286Z,5
2019-05-23T12:10:42.411Z,5
2019-05-23T12:11:54.624Z,8.1
2019-05-23T12:13:06.919Z,5.8
2019-05-23T12:14:18.993Z,6.4
2019-05-23T12:15:31.195Z,7.3
2019-05-23T12:16:43.372Z,7.3
2019-05-23T12:17:55.613Z,6.3
2019-05-23T12:19:07.770Z,5
2019-05-23T12:20:19.879Z,6.7
2019-05-23T12:21:32.150Z,7.6
2019-05-23T12:22:44.307Z,4.5
2019-05-23T12:23:56.539Z,5
2019-05-23T12:25:08.781Z,6.1
2019-05-23T12:26:21.001Z,3.9
2019-05-23T12:27:33.140Z,6.1
2019-05-23T12:28:45.326Z,6.3
2019-05-23T12:29:57.579Z,4.6
2019-05-23T12:31:09.715Z,4.5
2019-05-23T12:32:21.828Z,6
2019-05-23T12:33:34.103Z,5.5
2019-05-23T12:34:46.480Z,7
2019-05-23T12:35:58.589Z,6.6
2019-05-23T12:37:10.735Z,6.6
2019-05-23T12:38:23.013Z,4.7
2019-05-23T12:39:35.061Z,4.9
2019-05-23T12:40:47.190Z,5.9
2019-05-23T12:41:59.462Z,4
2019-05-23T12:43:11.636Z,4.6
2019-05-23T12:44:23.864Z,6
2019-05-23T12:45:36.121Z,5.3
2019-05-23T12:46:48.183Z,6
2019-05-23T12:48:05.532Z,3.9
2019-05-23T12:49:12.709Z,4
2019-05-23T12:50:24.831Z,6.7
2019-05-23T12:51:37.128Z,3.9
2019-05-23T12:52:50.512Z,3.7
2019-05-23T12:54:01.492Z,4.7
2019-05-23T12:55:13.532Z,4
2019-05-23T12:56:25.738Z,3.4
2019-05-23T12:57:38.077Z,5.4
2019-05-23T12:58:50.096Z,5.5
2019-05-23T13:00:02.379Z,6
2019-05-23T13:01:14.595Z,3.5
2019-05-23T13:02:26.741Z,4.4
2019-05-23T13:03:38.970Z,4.6
2019-05-23T13:04:51.229Z,4
2019-05-23T13:06:03.379Z,3.3
2019-05-23T13:07:15.588Z,5.8
2019-05-23T13:08:27.681Z,2.9
2019-05-23T13:09:40.022Z,4.7
2019-05-23T13:10:52.162Z,4.1
2019-05-23T13:12:04.354Z,5.5
2019-05-23T13:13:16.511Z,5.8
2019-05-23T13:14:28.758Z,5.4
2019-05-23T13:15:40.881Z,5.4
2019-05-23T13:16:53.130Z,7.9
2019-05-23T13:18:05.275Z,3.8
2019-05-23T13:19:17.489Z,4.8
2019-05-23T13:20:29.609Z,4.3
2019-05-23T13:21:41.761Z,3.3
2019-05-23T13:22:53.966Z,4.5
2019-05-23T13:24:06.319Z,4.5
2019-05-23T13:25:18.441Z,4.3
2019-05-23T13:26:30.721Z,6.4
2019-05-23T13:27:43.916Z,4.7
2019-05-23T13:28:55.027Z,4.2
2019-05-23T13:30:07.298Z,4.1
2019-05-23T13:31:19.403Z,4.1
2019-05-23T13:32:31.510Z,3.3
2019-05-23T13:34:55.978Z,4
2019-05-23T13:36:08.125Z,4.2
2019-05-23T13:37:20.398Z,3.8
2019-05-23T13:38:32.485Z,4.7
2019-05-23T13:39:44.675Z,4.2
2019-05-23T13:40:56.971Z,5.2
2019-05-23T13:42:09.079Z,4.2
2019-05-23T13:43:21.372Z,4.3
2019-05-23T13:44:33.463Z,3.1
2019-05-23T13:45:45.642Z,2.9
2019-05-23T13:46:57.860Z,5.7
2019-05-23T13:48:10.115Z,4.8
2019-05-23T13:49:22.366Z,3.4
2019-05-23T13:50:34.523Z,4.9
2019-05-23T13:51:46.663Z,3.8
2019-05-23T13:52:58.898Z,2.7
2019-05-23T13:54:11.023Z,3.2
2019-05-23T13:55:23.335Z,4.3
2019-05-23T13:56:35.454Z,4
2019-05-23T13:57:47.699Z,2.3
2019-05-23T13:58:59.814Z,2.6
2019-05-23T14:00:11.974Z,4
2019-05-23T14:01:24.285Z,3.3
2019-05-23T14:02:36.379Z,4.1
2019-05-23T14:03:48.630Z,4.3
2019-05-23T14:05:00.855Z,5.1
2019-05-23T14:06:13.016Z,4.5
2019-05-23T14:07:25.304Z,3.9
2019-05-23T14:08:37.337Z,3.3
2019-05-23T14:09:49.629Z,4.9
2019-05-23T14:11:01.764Z,5
2019-05-23T14:12:14.072Z,3.4
2019-05-23T14:13:26.296Z,4.7
2019-05-23T14:14:38.394Z,4.2
2019-05-23T14:15:50.544Z,3.8
2019-05-23T14:17:02.783Z,3.5
2019-05-23T14:18:15.027Z,3.1
2019-05-23T14:19:27.182Z,4.4
2019-05-23T14:20:39.274Z,7
2019-05-23T14:21:51.561Z,5
2019-05-23T14:23:04.370Z,3.5
2019-05-23T14:24:18.230Z,4.7
2019-05-23T14:25:28.145Z,4.8
2019-05-23T14:26:40.360Z,4
2019-05-23T14:27:52.564Z,4.3
2019-05-23T14:29:04.627Z,4.1
2019-05-23T14:30:16.857Z,4
2019-05-23T14:31:29.101Z,3.4
2019-05-23T14:32:41.225Z,4.3
2019-05-23T14:33:53.484Z,4.3
2019-05-23T14:35:05.682Z,3.4
2019-05-23T14:36:17.863Z,4.5
2019-05-23T14:37:35.746Z,4.3
2019-05-23T14:38:42.335Z,5.1
2019-05-23T14:39:54.447Z,4.7
2019-05-23T14:41:06.658Z,3.6
2019-05-23T14:42:18.849Z,4.8
2019-05-23T14:43:30.951Z,3.5
2019-05-23T14:44:43.151Z,4.4
2019-05-23T14:45:55.431Z,3.7
2019-05-23T14:47:07.623Z,5.5
2019-05-23T14:48:19.807Z,4.4
2019-05-23T14:49:32.004Z,3.2
2019-05-23T14:50:44.190Z,4.1
2019-05-23T14:51:56.451Z,5.5
2019-05-23T14:53:08.664Z,4.2
2019-05-23T14:54:20.701Z,4.2
2019-05-23T14:55:34.673Z,3.5
2019-05-23T14:56:48.496Z,4.2
2019-05-23T14:57:57.366Z,5.3
2019-05-23T14:59:09.518Z,5
2019-05-23T15:00:21.727Z,2.8
2019-05-23T15:01:33.976Z,4.3
2019-05-23T15:02:46.141Z,3.6
2019-05-23T15:03:58.247Z,4.4
2019-05-23T15:05:10.448Z,3.2
2019-05-23T15:06:22.681Z,4.6
2019-05-23T15:07:34.908Z,3.6
2019-05-23T15:08:47.045Z,3.1
2019-05-23T15:09:59.338Z,4.4
2019-05-23T15:11:11.398Z,3.7
2019-05-23T15:12:23.592Z,5.2
2019-05-23T15:13:36.027Z,6.9
2019-05-23T15:14:48.083Z,3.3
2019-05-23T15:16:00.193Z,4.1
2019-05-23T15:17:12.559Z,5.1
2019-05-23T15:18:24.661Z,4.6
2019-05-23T15:19:36.828Z,4.1
2019-05-23T15:20:48.946Z,5.3
2019-05-23T15:22:01.245Z,4
2019-05-23T15:23:13.336Z,3.7
2019-05-23T15:24:25.728Z,3.8
2019-05-23T15:25:37.812Z,3.3
2019-05-23T15:26:49.909Z,4.7
2019-05-23T15:28:02.214Z,4.4
2019-05-23T15:29:14.374Z,4.7
2019-05-23T15:30:26.501Z,3.3
2019-05-23T15:31:38.857Z,3.7
2019-05-23T15:32:50.973Z,4.6
2019-05-23T15:34:03.201Z,2.8
2019-05-23T15:35:15.274Z,3.2
2019-05-23T15:36:27.549Z,2.8
2019-05-23T15:37:39.781Z,3.5
2019-05-23T15:38:51.953Z,5
2019-05-23T15:40:04.144Z,4.7
2019-05-23T15:41:16.269Z,3.6
2019-05-23T15:42:28.496Z,4.1
2019-05-23T15:43:40.719Z,3.6
2019-05-23T15:44:52.892Z,4
2019-05-23T15:46:05.103Z,3.1
2019-05-23T15:47:17.207Z,2.5
2019-05-23T15:48:29.407Z,3
2019-05-23T15:49:41.685Z,3.8
2019-05-23T15:50:53.886Z,3.7
2019-05-23T15:52:06.093Z,3.2
2019-05-23T15:53:18.277Z,4.8
2019-05-23T15:54:30.539Z,4.8
2019-05-23T15:55:42.596Z,3.3
2019-05-23T15:56:54.755Z,4.5
2019-05-23T15:58:07.094Z,5.2
2019-05-23T15:59:19.154Z,5.1
2019-05-23T16:00:31.441Z,4.4
2019-05-23T16:01:43.629Z,5.3
2019-05-23T16:02:55.761Z,4.1
2019-05-23T16:04:07.987Z,6.3
2019-05-23T16:05:20.162Z,4.8
2019-05-23T16:06:32.401Z,4.2
2019-05-23T16:07:44.686Z,4.8
2019-05-23T16:08:56.700Z,3.8
2019-05-23T16:10:08.887Z,3.6
2019-05-23T16:11:21.214Z,4.3
2019-05-23T16:12:33.382Z,3.3
2019-05-23T16:13:45.571Z,2.6
2019-05-23T16:14:57.764Z,2.6
2019-05-23T16:16:09.950Z,3.8
2019-05-23T16:17:22.216Z,3
2019-05-23T16:18:34.943Z,3.7
2019-05-23T16:19:46.527Z,3.3
2019-05-23T16:20:58.626Z,3.1